Flight Track Log - Related Links

Times and Time Zones

All times are in EDT time to prevent confusion due to time zone crossing. See the ERR781 flight status page for this flight to view local times or setup timezone preferences in your user account.

Time Position Orientation Groundspeed Altitude Reporting Facility
EDT Latitude Longitude Course Direction KTS MPH feet Rate Location/Type
Mon 05:56:17 PM 70.1667 -148.5500 180° South 160 184 2,400  Level Anchorage Center
Mon 05:57:17 PM 70.1333 -148.4500 134° Southeast 180 207 4,100 1,550 Climbing Anchorage Center
Mon 05:58:17 PM 70.0833 -148.4167 167° South 160 184 5,500 1,350 Climbing Anchorage Center
Mon 05:59:17 PM 70.0333 -148.4167 180° South 160 184 6,800 1,450 Climbing Anchorage Center
Mon 06:00:17 PM 69.9833 -148.4167 180° South 180 207 8,400 1,350 Climbing Anchorage Center
Mon 06:01:00 PM 69.8101 -148.4167 180° South  Level FlightAware Approximate
Mon 06:01:17 PM 69.9333 -148.4000 173° South 180 207 9,500  Level Anchorage Center
Mon 06:02:17 PM 69.8833 -148.4000 180° South 190 219 11,000 1,350 Climbing Anchorage Center
Mon 06:03:17 PM 69.8333 -148.3833 173° South 200 230 12,200 1,200 Climbing Anchorage Center
Mon 06:04:17 PM 69.7833 -148.3833 180° South 200 230 13,400 1,150 Climbing Anchorage Center
Mon 06:05:17 PM 69.7167 -148.3833 180° South 210 242 14,500 1,050 Climbing Anchorage Center
Mon 06:06:17 PM 69.6667 -148.3667 173° South 210 242 15,500 1,041 Climbing Anchorage Center
Mon 06:07:18 PM 69.6000 -148.3667 180° South 210 242 16,600 992 Climbing Anchorage Center
Mon 06:08:18 PM 69.5500 -148.3500 173° South 220 253 17,500 800 Climbing Anchorage Center
Mon 06:09:18 PM 69.4833 -148.3500 180° South 210 242 18,200 850 Climbing Anchorage Center
Mon 06:10:18 PM 69.4167 -148.3333 175° South 230 265 19,200 900 Climbing Anchorage Center
Mon 06:11:18 PM 69.3667 -148.3333 180° South 220 253 20,000 750 Climbing Anchorage Center
Mon 06:12:18 PM 69.3000 -148.3167 175° South 230 265 20,700 850 Climbing Anchorage Center
Mon 06:13:18 PM 69.2333 -148.3167 180° South 220 253 21,700 900 Climbing Anchorage Center
Mon 06:14:18 PM 69.1833 -148.3000 173° South 220 253 22,500 650 Climbing Anchorage Center
Mon 06:15:18 PM 69.1167 -148.3000 180° South 230 265 23,000 250 Climbing Anchorage Center
Mon 06:16:18 PM 69.0500 -148.2833 175° South 250 288 23,000  Level Anchorage Center
Mon 06:17:19 PM 68.9667 -148.2833 180° South 260 299 23,000  Level Anchorage Center
Mon 06:18:19 PM 68.9000 -148.2667 175° South 260 299 23,000  Level Anchorage Center
Mon 06:19:18 PM 68.8333 -148.2667 180° South 250 288 23,000  Level Anchorage Center
Mon 06:20:19 PM 68.7667 -148.2500 175° South 260 299 23,000  Level Anchorage Center
Mon 06:21:19 PM 68.6833 -148.2500 180° South 260 299 23,000  Level Anchorage Center
Mon 06:22:19 PM 68.6167 -148.2333 175° South 250 288 23,000  Level Anchorage Center
Mon 06:24:19 PM 68.4667 -148.2167 178° South 260 299 23,000  Level Anchorage Center
Mon 06:25:19 PM 68.4000 -148.2167 180° South 260 299 23,000  Level Anchorage Center
Mon 06:26:19 PM 68.3333 -148.2000 175° South 260 299 23,000  Level Anchorage Center
Mon 06:27:19 PM 68.2500 -148.1833 176° South 250 288 23,000  Level Anchorage Center
Mon 06:28:19 PM 68.1833 -148.1833 180° South 260 299 23,000  Level Anchorage Center
Mon 06:29:19 PM 68.1167 -148.1667 175° South 250 288 23,000  Level Anchorage Center
Mon 06:30:19 PM 68.0333 -148.1667 180° South 260 299 23,000  Level Anchorage Center
Mon 06:31:19 PM 67.9667 -148.1667 180° South 260 299 23,000  Level Anchorage Center
Mon 06:32:19 PM 67.9000 -148.1500 175° South 260 299 23,000  Level Anchorage Center
Mon 06:33:20 PM 67.8333 -148.1333 175° South 250 288 23,000  Level Anchorage Center
Mon 06:34:19 PM 67.7500 -148.1333 180° South 260 299 23,000  Level Anchorage Center
Mon 06:35:20 PM 67.6833 -148.1333 180° South 250 288 23,000  Level Anchorage Center
Mon 06:36:20 PM 67.6000 -148.1333 180° South 280 322 23,000  Level Anchorage Center
Mon 06:37:20 PM 67.5333 -148.1167 175° South 280 322 23,000  Level Anchorage Center
Mon 06:38:20 PM 67.4667 -148.1000 175° South 250 288 23,000  Level Anchorage Center
Mon 06:39:20 PM 67.4000 -148.1000 180° South 250 288 23,000  Level Anchorage Center
Mon 06:40:20 PM 67.3333 -148.0833 174° South 250 288 23,000  Level Anchorage Center
Mon 06:41:20 PM 67.2500 -148.0833 180° South 250 288 23,000  Level Anchorage Center
Mon 06:42:20 PM 67.1833 -148.0667 174° South 270 311 23,000  Level Anchorage Center
Mon 06:43:21 PM 67.1167 -148.0667 180° South 260 299 23,000  Level Anchorage Center
Mon 06:44:21 PM 67.0333 -148.0667 180° South 250 288 23,000  Level Anchorage Center
Mon 06:45:21 PM 66.9667 -148.0500 174° South 270 311 23,000  Level Anchorage Center
Mon 06:46:21 PM 66.9000 -148.0500 180° South 260 299 23,000  Level Anchorage Center
Mon 06:47:21 PM 66.8333 -148.0333 174° South 260 299 23,000  Level Anchorage Center
Mon 06:48:21 PM 66.7500 -148.0333 180° South 260 299 23,000  Level Anchorage Center
Mon 06:49:21 PM 66.6833 -148.0333 180° South 260 299 23,000  Level Anchorage Center
Mon 06:50:21 PM 66.6167 -148.0167 174° South 260 299 23,000  Level Anchorage Center
Mon 06:51:21 PM 66.5333 -148.0167 180° South 260 299 23,000  Level Anchorage Center
Mon 06:52:21 PM 66.4667 -148.0000 174° South 260 299 23,000  Level Anchorage Center
Mon 06:53:21 PM 66.4000 -148.0000 180° South 260 299 23,000  Level Anchorage Center
Mon 06:54:21 PM 66.3167 -147.9833 175° South 260 299 23,000 -350 Level Anchorage Center
Mon 06:55:21 PM 66.2500 -147.9833 180° South 260 299 22,300 -800 Descending Anchorage Center
Mon 06:56:21 PM 66.1667 -147.9667 175° South 280 322 21,400 -942 Descending Anchorage Center
Mon 06:57:22 PM 66.1000 -147.9667 180° South 290 334 20,400 -1,091 Descending Anchorage Center
Mon 06:58:22 PM 66.0167 -147.9500 175° South 300 345 19,200 -1,250 Descending Anchorage Center
Mon 06:59:22 PM 65.9333 -147.9500 180° South 290 334 17,900 -1,000 Descending Anchorage Center
Mon 07:00:22 PM 65.8500 -147.9333 175° South 280 322 17,200 -950 Descending Anchorage Center
Mon 07:01:22 PM 65.7833 -147.9333 180° South 280 322 16,000 -1,140 Descending Anchorage Center
Mon 07:02:23 PM 65.7000 -147.9333 180° South 280 322 14,900 -1,050 Descending Anchorage Center
Mon 07:03:22 PM 65.6333 -147.9167 174° South 270 311 13,900 -1,008 Descending Anchorage Center
Mon 07:04:22 PM 65.5500 -147.9167 180° South 260 299 12,900 -1,000 Descending Anchorage Center
Mon 07:05:22 PM 65.4833 -147.9000 174° South 270 311 11,900 -1,000 Descending Anchorage Center
Mon 07:07:00 PM 65.3797 -147.8966 178° South  Level FlightAware Approximate
Mon 07:14:00 PM 64.9358 -147.8638 175° South  Level FlightAware Approximate
Mon 07:15:00 PM 64.8726 -147.8512 175° South  Level FlightAware Approximate
Mon 07:16:00 PM 64.8092 -147.8500 180° South  Level FlightAware Approximate
Mon 07:17:00 PM 64.8000 -147.8500 180° South  Level FlightAware Approximate
Mon 07:18:00 PM 64.8151 -147.8564 180° South  Level Estimated
Mon 07:19:00 PM 64.8151 -147.8564 180° South  Level Estimated
Mon 07:20:00 PM 64.8151 -147.8564 180° South  Level Estimated
Mon 07:21:00 PM 64.8151 -147.8564 180° South  Level Estimated
Mon 07:22:00 PM 64.8151 -147.8564 180° South  Level Estimated
Mon 07:23:00 PM 64.8151 -147.8564 180° South  Level Estimated
Mon 07:24:00 PM 64.8151 -147.8564 180° South  Level Estimated
Mon 07:25:00 PM 64.8151 -147.8564 180° South  Level Estimated
Mon 07:26:00 PM 64.8151 -147.8564 180° South  Level Estimated
Mon 07:27:00 PM 64.8151 -147.8564 180° South  Level Estimated
Mon 07:28:00 PM 64.8151 -147.8564 180° South  Level Estimated
Mon 07:29:00 PM 64.8151 -147.8564 180° South  Level Estimated
Mon 07:30:00 PM 64.8151 -147.8564 180° South  Level Estimated
Mon 07:31:00 PM 64.8151 -147.8564 180° South  Level Estimated
Mon 07:32:00 PM 64.8151 -147.8564 180° South  Level Estimated
Mon 07:33:00 PM 64.8151 -147.8564 180° South  Level Estimated

Login

Don't have an account? Register now (free) for customized features, flight alerts, and more!